createdAt,value
2019-04-25T00:02:02.015Z,15.21
2019-04-25T00:04:28.106Z,15.30
2019-04-25T00:06:53.888Z,15.34
2019-04-25T00:09:22.026Z,15.39
2019-04-25T00:11:48.932Z,15.44
2019-04-25T00:14:15.265Z,15.55
2019-04-25T00:16:44.057Z,15.57
2019-04-25T00:19:09.953Z,15.57
2019-04-25T00:21:42.199Z,15.60
2019-04-25T00:24:12.837Z,15.60
2019-04-25T00:26:44.401Z,15.65
2019-04-25T00:29:10.978Z,15.61
2019-04-25T00:31:36.766Z,15.64
2019-04-25T00:34:02.965Z,15.60
2019-04-25T00:36:28.750Z,15.59
2019-04-25T00:38:54.536Z,15.57
2019-04-25T00:41:21.331Z,15.49
2019-04-25T00:43:47.473Z,15.52
2019-04-25T00:46:13.288Z,15.52
2019-04-25T00:48:39.079Z,15.63
2019-04-25T00:51:04.855Z,15.83
2019-04-25T00:53:32.260Z,15.97
2019-04-25T00:55:58.142Z,15.97
2019-04-25T00:58:37.484Z,15.95
2019-04-25T01:01:17.062Z,15.96
2019-04-25T01:03:44.144Z,15.89
2019-04-25T01:06:12.015Z,15.92
2019-04-25T01:08:37.855Z,15.79
2019-04-25T01:11:03.643Z,15.87
2019-04-25T01:13:29.570Z,15.84
2019-04-25T01:15:55.688Z,15.77
2019-04-25T01:18:23.041Z,15.74
2019-04-25T01:20:49.555Z,15.64
2019-04-25T01:23:15.601Z,15.57
2019-04-25T01:25:44.275Z,15.54
2019-04-25T01:28:09.071Z,15.49
2019-04-25T01:30:34.869Z,15.40
2019-04-25T01:33:00.764Z,15.45
2019-04-25T01:35:28.499Z,15.40
2019-04-25T01:38:04.774Z,15.42
2019-04-25T01:40:49.506Z,15.35
2019-04-25T01:43:35.332Z,15.38
2019-04-25T01:46:03.248Z,15.30
2019-04-25T01:48:29.152Z,15.26
2019-04-25T01:50:55.475Z,15.19
2019-04-25T01:53:21.527Z,15.18
2019-04-25T01:55:56.126Z,15.19
2019-04-25T01:58:15.003Z,15.24
2019-04-25T02:00:48.235Z,15.21
2019-04-25T02:03:14.018Z,15.20
2019-04-25T02:05:39.804Z,15.05
2019-04-25T02:08:06.926Z,15.09
2019-04-25T02:10:34.432Z,15.08
2019-04-25T02:13:07.769Z,15.11
2019-04-25T02:15:33.632Z,15.07
2019-04-25T02:18:00.350Z,15.04
2019-04-25T02:20:26.431Z,14.92
2019-04-25T02:22:52.314Z,14.85
2019-04-25T02:25:18.538Z,14.73
2019-04-25T02:27:44.311Z,14.66
2019-04-25T02:30:11.391Z,14.61
2019-04-25T02:32:37.431Z,14.55
2019-04-25T02:35:09.076Z,14.54
2019-04-25T02:37:34.952Z,14.38
2019-04-25T02:40:01.705Z,14.40
2019-04-25T02:42:28.074Z,14.38
2019-04-25T02:44:57.886Z,14.38
2019-04-25T02:47:28.259Z,14.34
2019-04-25T02:49:58.406Z,14.38
2019-04-25T02:52:25.564Z,14.26
2019-04-25T02:54:51.346Z,14.22
2019-04-25T02:57:17.136Z,14.04
2019-04-25T02:59:44.831Z,14.03
2019-04-25T03:02:10.717Z,14.00
2019-04-25T03:04:36.506Z,13.83
2019-04-25T03:07:07.185Z,13.68
2019-04-25T03:09:30.191Z,13.61
2019-04-25T03:11:58.228Z,13.43
2019-04-25T03:14:24.738Z,13.46
2019-04-25T03:16:51.431Z,13.34
2019-04-25T03:19:35.385Z,13.31
2019-04-25T03:22:10.080Z,13.26
2019-04-25T03:24:35.278Z,13.33
2019-04-25T03:27:01.091Z,13.28
2019-04-25T03:29:26.878Z,13.25
2019-04-25T03:31:55.626Z,13.29
2019-04-25T03:34:20.953Z,13.21
2019-04-25T03:36:46.846Z,13.15
2019-04-25T03:39:14.481Z,13.15
2019-04-25T03:41:40.333Z,13.28
2019-04-25T03:44:06.494Z,13.19
2019-04-25T03:46:33.398Z,13.17
2019-04-25T03:48:59.240Z,13.23
2019-04-25T03:51:25.029Z,13.17
2019-04-25T03:53:50.833Z,13.19
2019-04-25T03:56:16.660Z,13.20
2019-04-25T03:58:43.962Z,13.20
2019-04-25T04:01:09.852Z,13.21
2019-04-25T04:03:35.661Z,13.14
2019-04-25T04:06:01.448Z,13.22
2019-04-25T04:08:27.248Z,13.22
2019-04-25T04:10:54.344Z,13.28
2019-04-25T04:13:20.240Z,13.17
2019-04-25T04:15:46.018Z,13.13
2019-04-25T04:18:17.270Z,13.15
2019-04-25T04:21:01.336Z,13.21
2019-04-25T04:23:34.962Z,13.22
2019-04-25T04:26:06.322Z,13.19
2019-04-25T04:28:33.652Z,13.30
2019-04-25T04:30:59.501Z,13.29
2019-04-25T04:33:31.833Z,13.25
2019-04-25T04:35:54.340Z,13.21
2019-04-25T04:38:20.157Z,13.24
2019-04-25T04:40:45.957Z,13.21
2019-04-25T04:43:11.795Z,13.29
2019-04-25T04:45:37.531Z,13.31
2019-04-25T04:48:03.365Z,13.40
2019-04-25T04:50:29.145Z,13.42
2019-04-25T04:52:54.946Z,13.35
2019-04-25T04:55:20.758Z,13.37
2019-04-25T04:57:46.550Z,13.41
2019-04-25T05:00:14.276Z,13.37
2019-04-25T05:02:47.476Z,13.44
2019-04-25T05:05:34.305Z,13.45
2019-04-25T05:08:04.734Z,13.41
2019-04-25T05:10:30.550Z,13.40
2019-04-25T05:12:56.349Z,13.31
2019-04-25T05:15:24.523Z,13.18
2019-04-25T05:17:49.861Z,13.10
2019-04-25T05:20:17.306Z,12.96
2019-04-25T05:22:44.539Z,12.92
2019-04-25T05:25:10.641Z,13.01
2019-04-25T05:27:50.708Z,13.03
2019-04-25T05:30:05.814Z,13.01
2019-04-25T05:32:31.647Z,13.03
2019-04-25T05:34:57.402Z,13.10
2019-04-25T05:37:24.043Z,13.12
2019-04-25T05:39:50.880Z,13.22
2019-04-25T05:42:18.584Z,13.28
2019-04-25T05:44:44.389Z,13.38
2019-04-25T05:47:10.200Z,13.43
2019-04-25T05:49:35.974Z,13.53
2019-04-25T05:52:01.768Z,13.59
2019-04-25T05:54:27.551Z,13.60
2019-04-25T05:56:53.805Z,13.65
2019-04-25T05:59:19.626Z,13.72
2019-04-25T06:01:45.413Z,13.74
2019-04-25T06:04:11.202Z,13.80
2019-04-25T06:06:37.019Z,13.86
2019-04-25T06:09:09.972Z,13.91
2019-04-25T06:11:40.429Z,13.94
2019-04-25T06:14:08.129Z,14.06
2019-04-25T06:16:34.044Z,14.11
2019-04-25T06:19:12.954Z,14.15
2019-04-25T06:21:29.433Z,14.14
2019-04-25T06:24:13.544Z,14.17
2019-04-25T06:26:41.267Z,14.29
2019-04-25T06:29:07.058Z,14.51
2019-04-25T06:31:34.176Z,14.58
2019-04-25T06:34:00.043Z,14.50
2019-04-25T06:36:25.824Z,14.35
2019-04-25T06:38:51.608Z,14.29
2019-04-25T06:41:17.390Z,14.25
2019-04-25T06:43:45.087Z,14.42
2019-04-25T06:46:15.337Z,14.39
2019-04-25T06:48:45.229Z,14.52
2019-04-25T06:51:10.939Z,14.55
2019-04-25T06:53:36.728Z,14.60
2019-04-25T06:56:03.503Z,14.57
2019-04-25T06:58:30.136Z,14.73
2019-04-25T07:01:00.652Z,15.15
2019-04-25T07:03:25.165Z,15.21
2019-04-25T07:05:51.361Z,15.05
2019-04-25T07:08:17.159Z,15.11
2019-04-25T07:10:44.589Z,15.23
2019-04-25T07:13:10.544Z,14.99
2019-04-25T07:15:36.324Z,14.69
2019-04-25T07:18:03.755Z,14.47
2019-04-25T07:20:30.237Z,14.62
2019-04-25T07:22:56.042Z,15.06
2019-04-25T07:25:26.312Z,15.40
2019-04-25T07:27:53.581Z,15.69
2019-04-25T07:30:31.912Z,15.71
2019-04-25T07:33:03.865Z,15.95
2019-04-25T07:35:29.717Z,16.46
2019-04-25T07:37:55.556Z,17.09
2019-04-25T07:40:21.670Z,17.59
2019-04-25T07:42:47.459Z,17.72
2019-04-25T07:45:15.187Z,17.61
2019-04-25T07:47:41.052Z,17.43
2019-04-25T07:50:07.332Z,17.57
2019-04-25T07:52:34.336Z,17.82
2019-04-25T07:55:00.629Z,17.95
2019-04-25T07:57:26.959Z,18.20
2019-04-25T07:59:53.814Z,18.04
2019-04-25T08:02:19.657Z,18.35
2019-04-25T08:04:45.524Z,18.80
2019-04-25T08:07:11.401Z,18.78
2019-04-25T08:09:37.981Z,18.99
2019-04-25T08:12:03.886Z,18.92
2019-04-25T08:14:32.068Z,19.16
2019-04-25T08:17:00.185Z,19.03
2019-04-25T08:19:26.100Z,19.03
2019-04-25T08:21:53.747Z,19.62
2019-04-25T08:24:19.962Z,19.87
2019-04-25T08:26:45.793Z,20.04
2019-04-25T08:29:12.917Z,20.07
2019-04-25T08:31:39.476Z,20.23
2019-04-25T08:34:05.246Z,20.36
2019-04-25T08:36:31.223Z,20.41
2019-04-25T08:38:57.011Z,20.51
2019-04-25T08:41:23.892Z,20.45
2019-04-25T08:43:49.732Z,20.36
2019-04-25T08:46:15.509Z,20.25
2019-04-25T08:49:02.369Z,20.33
2019-04-25T08:51:36.506Z,20.82
2019-04-25T08:54:04.287Z,20.98
2019-04-25T08:56:33.909Z,20.89
2019-04-25T08:59:07.938Z,20.79
2019-04-25T09:01:38.942Z,20.78
2019-04-25T09:04:05.151Z,20.65
2019-04-25T09:06:31.762Z,20.79
2019-04-25T09:08:58.620Z,20.82
2019-04-25T09:11:24.550Z,20.64
2019-04-25T09:13:50.299Z,20.84
2019-04-25T09:16:16.084Z,21.26
2019-04-25T09:18:41.870Z,21.77
2019-04-25T09:21:07.664Z,22.33
2019-04-25T09:23:36.204Z,22.24
2019-04-25T09:26:01.176Z,22.03
2019-04-25T09:28:26.954Z,21.96
2019-04-25T09:30:53.993Z,21.94
2019-04-25T09:33:20.068Z,22.41
2019-04-25T09:35:46.133Z,21.96
2019-04-25T09:38:13.318Z,21.98
2019-04-25T09:40:39.528Z,21.89
2019-04-25T09:43:05.335Z,21.76
2019-04-25T09:45:36.110Z,22.03
2019-04-25T09:48:04.691Z,22.51
2019-04-25T09:50:45.155Z,22.44
2019-04-25T09:53:21.888Z,22.48
2019-04-25T09:55:44.093Z,22.59
2019-04-25T09:58:17.967Z,22.39
2019-04-25T10:01:00.877Z,22.37
2019-04-25T10:03:26.763Z,21.98
2019-04-25T10:05:52.548Z,21.88
2019-04-25T10:08:18.337Z,22.17
2019-04-25T10:10:44.637Z,22.12
2019-04-25T10:13:10.594Z,22.18
2019-04-25T10:15:49.257Z,22.26
2019-04-25T10:18:15.059Z,22.69
2019-04-25T10:20:41.196Z,22.63
2019-04-25T10:23:08.164Z,22.88
2019-04-25T10:25:33.971Z,23.20
2019-04-25T10:27:59.765Z,23.17
2019-04-25T10:30:26.062Z,22.93
2019-04-25T10:32:53.185Z,22.92
2019-04-25T10:35:19.616Z,22.59
2019-04-25T10:37:46.496Z,22.55
2019-04-25T10:40:13.430Z,22.78
2019-04-25T10:42:40.602Z,23.22
2019-04-25T10:45:06.710Z,23.43
2019-04-25T10:47:33.468Z,23.70
2019-04-25T10:50:00.199Z,23.28
2019-04-25T10:52:26.073Z,22.98
2019-04-25T10:54:52.616Z,22.71
2019-04-25T10:57:22.441Z,22.93
2019-04-25T11:00:00.747Z,23.29
2019-04-25T11:02:16.100Z,23.46
2019-04-25T11:04:44.582Z,24.01
2019-04-25T11:07:11.506Z,23.83
2019-04-25T11:09:37.297Z,23.08
2019-04-25T11:12:04.581Z,23.64
2019-04-25T11:14:30.568Z,23.91
2019-04-25T11:16:56.476Z,23.54
2019-04-25T11:19:23.841Z,23.47
2019-04-25T11:21:49.723Z,23.76
2019-04-25T11:24:15.527Z,23.79
2019-04-25T11:26:41.528Z,22.98
2019-04-25T11:29:07.400Z,23.14
2019-04-25T11:31:35.081Z,23.28
2019-04-25T11:34:01.346Z,23.20
2019-04-25T11:36:27.159Z,23.21
2019-04-25T11:38:54.953Z,23.58
2019-04-25T11:41:24.155Z,23.29
2019-04-25T11:43:50.739Z,23.14
2019-04-25T11:46:16.853Z,22.55
2019-04-25T11:48:44.194Z,21.83
2019-04-25T11:51:10.521Z,21.55
2019-04-25T11:53:36.291Z,21.88
2019-04-25T11:56:03.631Z,23.23
2019-04-25T11:58:29.662Z,24.06
2019-04-25T12:00:57.921Z,24.48
2019-04-25T12:03:24.588Z,24.31
2019-04-25T12:05:50.991Z,23.49
2019-04-25T12:08:16.928Z,23.60
2019-04-25T12:10:45.412Z,23.93
2019-04-25T12:13:10.516Z,24.33
2019-04-25T12:15:36.328Z,24.65
2019-04-25T12:18:02.117Z,24.77
2019-04-25T12:20:27.939Z,24.49
2019-04-25T12:23:05.613Z,24.27
2019-04-25T12:25:21.432Z,23.80
2019-04-25T12:27:48.659Z,23.98
2019-04-25T12:30:15.131Z,23.42
2019-04-25T12:32:41.243Z,23.57
2019-04-25T12:35:07.265Z,23.60
2019-04-25T12:37:33.727Z,23.88
2019-04-25T12:39:59.534Z,23.83
2019-04-25T12:42:25.325Z,23.98
2019-04-25T12:45:04.925Z,24.55
2019-04-25T12:47:34.259Z,24.92
2019-04-25T12:50:00.206Z,25.19
2019-04-25T12:52:25.998Z,24.39
2019-04-25T12:54:51.807Z,23.54
2019-04-25T12:57:18.017Z,23.33
2019-04-25T12:59:45.165Z,23.66
2019-04-25T13:02:10.998Z,23.88
2019-04-25T13:04:36.778Z,24.30
2019-04-25T13:07:04.058Z,24.64
2019-04-25T13:09:30.463Z,24.32
2019-04-25T13:11:56.259Z,23.66
2019-04-25T13:14:22.990Z,23.63
2019-04-25T13:16:48.959Z,23.74
2019-04-25T13:19:21.778Z,23.95
2019-04-25T13:21:43.276Z,24.10
2019-04-25T13:24:10.452Z,24.29
2019-04-25T13:26:38.210Z,24.30
2019-04-25T13:29:06.738Z,24.31
2019-04-25T13:31:50.674Z,24.09
2019-04-25T13:34:18.374Z,24.14
2019-04-25T13:36:44.406Z,24.19
2019-04-25T13:39:13.234Z,24.31
2019-04-25T13:41:39.865Z,24.36
2019-04-25T13:44:05.661Z,24.63
2019-04-25T13:46:32.630Z,24.75
2019-04-25T13:48:59.160Z,24.56
2019-04-25T13:51:25.045Z,24.74
2019-04-25T13:53:50.835Z,24.21
2019-04-25T13:56:16.908Z,24.40
2019-04-25T13:58:44.180Z,24.59
2019-04-25T14:01:15.109Z,24.75
2019-04-25T14:03:39.764Z,24.73
2019-04-25T14:06:05.945Z,24.50
2019-04-25T14:08:33.391Z,23.87
2019-04-25T14:10:59.313Z,23.44
2019-04-25T14:13:26.313Z,23.52
2019-04-25T14:16:03.555Z,23.45
2019-04-25T14:18:49.154Z,23.26
2019-04-25T14:21:19.195Z,23.09
2019-04-25T14:23:45.002Z,23.08
2019-04-25T14:26:11.188Z,23.03
2019-04-25T14:28:36.982Z,22.98
2019-04-25T14:31:03.767Z,22.90
2019-04-25T14:33:30.587Z,22.77
2019-04-25T14:35:56.457Z,22.64
2019-04-25T14:38:24.367Z,22.82
2019-04-25T14:40:49.930Z,22.92
2019-04-25T14:43:15.723Z,22.92
2019-04-25T14:45:44.988Z,22.86
2019-04-25T14:48:09.326Z,22.82
2019-04-25T14:50:36.145Z,22.86
2019-04-25T14:53:01.898Z,22.85
2019-04-25T14:55:41.262Z,22.67
2019-04-25T14:58:08.962Z,22.77
2019-04-25T15:00:36.662Z,22.88
2019-04-25T15:03:02.833Z,22.81
2019-04-25T15:05:28.623Z,22.68
2019-04-25T15:07:54.465Z,22.71
2019-04-25T15:10:20.345Z,22.81
2019-04-25T15:12:46.499Z,22.97
2019-04-25T15:15:12.419Z,22.87
2019-04-25T15:17:46.222Z,22.93
2019-04-25T15:20:06.129Z,22.92
2019-04-25T15:22:34.674Z,22.86
2019-04-25T15:25:00.790Z,22.66
2019-04-25T15:27:26.593Z,22.37
2019-04-25T15:29:52.484Z,22.31
2019-04-25T15:32:20.183Z,22.42
2019-04-25T15:34:50.461Z,22.50
2019-04-25T15:37:18.141Z,22.49
2019-04-25T15:39:45.856Z,22.64
2019-04-25T15:42:29.959Z,22.99
2019-04-25T15:44:57.650Z,22.99
2019-04-25T15:47:26.410Z,23.02
2019-04-25T15:49:52.775Z,23.02
2019-04-25T15:52:20.525Z,23.08
2019-04-25T15:54:46.319Z,23.13
2019-04-25T15:57:12.430Z,23.21
2019-04-25T15:59:38.220Z,23.16
2019-04-25T16:02:08.226Z,23.09
2019-04-25T16:04:34.535Z,23.07
2019-04-25T16:07:00.349Z,23.01
2019-04-25T16:09:26.787Z,22.89
2019-04-25T16:11:53.517Z,22.83
2019-04-25T16:14:19.296Z,22.76
2019-04-25T16:16:45.094Z,22.85
2019-04-25T16:19:10.869Z,22.75
2019-04-25T16:21:37.679Z,22.79
2019-04-25T16:24:03.866Z,22.77
2019-04-25T16:26:29.671Z,22.77
2019-04-25T16:28:55.448Z,22.71
2019-04-25T16:31:23.164Z,22.70
2019-04-25T16:33:49.154Z,22.66
2019-04-25T16:36:15.079Z,22.57
2019-04-25T16:38:41.093Z,22.59
2019-04-25T16:41:07.051Z,22.65
2019-04-25T16:43:35.245Z,22.62
2019-04-25T16:46:01.047Z,22.57
2019-04-25T16:48:26.829Z,22.48
2019-04-25T16:50:52.620Z,22.52
2019-04-25T16:53:18.418Z,22.50
2019-04-25T16:55:44.248Z,22.49
2019-04-25T16:58:10.261Z,22.39
2019-04-25T17:00:38.351Z,22.38
2019-04-25T17:03:04.157Z,22.28
2019-04-25T17:05:32.421Z,22.13
2019-04-25T17:07:58.258Z,22.06
2019-04-25T17:10:24.225Z,21.99
2019-04-25T17:12:50.019Z,21.91
2019-04-25T17:15:32.352Z,21.91
2019-04-25T17:18:08.832Z,21.84
2019-04-25T17:20:36.777Z,21.79
2019-04-25T17:23:02.704Z,21.76
2019-04-25T17:25:28.592Z,21.70
2019-04-25T17:27:54.381Z,21.62
2019-04-25T17:30:20.394Z,21.54
2019-04-25T17:32:53.962Z,21.48
2019-04-25T17:35:29.398Z,21.46
2019-04-25T17:38:02.708Z,21.40
2019-04-25T17:40:32.823Z,21.28
2019-04-25T17:43:10.470Z,21.19
2019-04-25T17:45:29.126Z,21.14
2019-04-25T17:47:55.134Z,21.10
2019-04-25T17:50:20.913Z,21.02
2019-04-25T17:52:46.721Z,20.91
2019-04-25T17:55:12.525Z,20.86
2019-04-25T17:57:38.346Z,20.77
2019-04-25T18:00:09.282Z,20.76
2019-04-25T18:02:35.105Z,20.64
2019-04-25T18:05:00.905Z,20.58
2019-04-25T18:07:26.682Z,20.50
2019-04-25T18:09:52.470Z,20.42
2019-04-25T18:12:18.341Z,20.41
2019-04-25T18:14:44.705Z,20.27
2019-04-25T18:17:10.483Z,20.20
2019-04-25T18:19:38.575Z,20.12
2019-04-25T18:22:09.158Z,20.03
2019-04-25T18:24:45.539Z,19.89
2019-04-25T18:27:13.223Z,19.83
2019-04-25T18:29:39.487Z,19.73
2019-04-25T18:32:05.309Z,19.57
2019-04-25T18:34:38.817Z,19.43
2019-04-25T18:37:06.516Z,19.36
2019-04-25T18:39:34.234Z,19.24
2019-04-25T18:42:04.505Z,19.06
2019-04-25T18:44:30.292Z,18.92
2019-04-25T18:46:56.089Z,18.88
2019-04-25T18:49:21.909Z,18.77
2019-04-25T18:51:56.430Z,18.61
2019-04-25T18:54:24.274Z,18.51
2019-04-25T18:57:00.929Z,18.29
2019-04-25T18:59:38.684Z,18.25
2019-04-25T19:02:16.155Z,18.14
2019-04-25T19:04:52.456Z,18.07
2019-04-25T19:07:22.622Z,17.91
2019-04-25T19:09:47.055Z,17.86
2019-04-25T19:12:12.959Z,17.79
2019-04-25T19:14:39.912Z,17.76
2019-04-25T19:17:07.944Z,17.64
2019-04-25T19:19:33.746Z,17.56
2019-04-25T19:21:59.556Z,17.46
2019-04-25T19:24:25.375Z,17.35
2019-04-25T19:26:52.218Z,17.21
2019-04-25T19:29:18.069Z,17.23
2019-04-25T19:31:44.304Z,17.08
2019-04-25T19:34:10.149Z,17.09
2019-04-25T19:36:35.939Z,16.90
2019-04-25T19:39:02.018Z,16.83
2019-04-25T19:41:29.714Z,16.77
2019-04-25T19:43:57.437Z,16.74
2019-04-25T19:46:27.898Z,16.62
2019-04-25T19:48:53.738Z,16.61
2019-04-25T19:51:19.535Z,16.55
2019-04-25T19:53:45.338Z,16.60
2019-04-25T19:56:11.165Z,16.53
2019-04-25T19:58:36.955Z,16.48
2019-04-25T20:01:03.749Z,16.43
2019-04-25T20:03:31.425Z,16.37
2019-04-25T20:06:15.554Z,16.24
2019-04-25T20:08:49.059Z,16.22
2019-04-25T20:11:19.554Z,16.16
2019-04-25T20:13:45.459Z,16.11
2019-04-25T20:16:11.530Z,16.02
2019-04-25T20:18:37.314Z,15.92
2019-04-25T20:21:03.123Z,15.95
2019-04-25T20:23:28.930Z,15.89
2019-04-25T20:25:57.099Z,15.85
2019-04-25T20:28:22.508Z,15.82
2019-04-25T20:30:48.548Z,15.78
2019-04-25T20:33:14.385Z,15.73
2019-04-25T20:35:40.166Z,15.73
2019-04-25T20:38:05.954Z,15.67
2019-04-25T20:40:31.737Z,15.56
2019-04-25T20:42:57.532Z,15.54
2019-04-25T20:45:23.345Z,15.47
2019-04-25T20:47:50.018Z,15.40
2019-04-25T20:50:15.828Z,15.37
2019-04-25T20:52:41.618Z,15.38
2019-04-25T20:55:07.496Z,15.34
2019-04-25T20:57:34.606Z,15.37
2019-04-25T21:00:00.386Z,15.36
2019-04-25T21:02:26.182Z,15.30
2019-04-25T21:04:52.180Z,15.24
2019-04-25T21:07:18.208Z,15.19
2019-04-25T21:09:44.265Z,15.21
2019-04-25T21:12:10.050Z,15.18
2019-04-25T21:14:37.891Z,15.19
2019-04-25T21:17:21.757Z,15.13
2019-04-25T21:19:50.472Z,15.18
2019-04-25T21:22:17.333Z,15.17
2019-04-25T21:24:43.132Z,15.18
2019-04-25T21:27:09.100Z,15.13
2019-04-25T21:29:34.996Z,15.12
2019-04-25T21:32:01.115Z,15.15
2019-04-25T21:34:29.882Z,15.09
2019-04-25T21:36:55.507Z,15.07
2019-04-25T21:39:40.733Z,15.08
2019-04-25T21:42:10.120Z,15.03
2019-04-25T21:44:36.161Z,15.04
2019-04-25T21:47:02.006Z,15.06
2019-04-25T21:49:28.818Z,15.04
2019-04-25T21:51:55.080Z,15.01
2019-04-25T21:54:21.184Z,14.99
2019-04-25T21:56:47.197Z,14.99
2019-04-25T21:59:13.276Z,14.88
2019-04-25T22:01:40.886Z,14.93
2019-04-25T22:04:06.847Z,14.92
2019-04-25T22:06:33.020Z,14.86
2019-04-25T22:08:58.811Z,14.90
2019-04-25T22:11:24.870Z,14.92
2019-04-25T22:13:51.042Z,15.00
2019-04-25T22:16:17.134Z,15.06
2019-04-25T22:18:43.181Z,15.07
2019-04-25T22:21:09.280Z,15.12
2019-04-25T22:23:35.349Z,15.22
2019-04-25T22:26:01.466Z,15.17
2019-04-25T22:28:28.351Z,15.21
2019-04-25T22:30:57.715Z,15.30
2019-04-25T22:33:34.028Z,15.37
2019-04-25T22:36:16.412Z,15.46
2019-04-25T22:38:42.192Z,15.48
2019-04-25T22:41:08.083Z,15.55
2019-04-25T22:43:35.970Z,15.58
2019-04-25T22:46:02.160Z,15.61
2019-04-25T22:48:46.639Z,15.66
2019-04-25T22:51:12.432Z,15.68
2019-04-25T22:53:38.317Z,15.79
2019-04-25T22:56:04.107Z,15.85
2019-04-25T22:58:30.256Z,15.89
2019-04-25T23:00:56.279Z,15.90
2019-04-25T23:03:23.985Z,15.94
2019-04-25T23:05:51.721Z,16.00
2019-04-25T23:08:17.705Z,16.01
2019-04-25T23:10:43.498Z,16.05
2019-04-25T23:13:09.273Z,16.03
2019-04-25T23:15:35.064Z,16.07
2019-04-25T23:18:01.043Z,16.06
2019-04-25T23:20:26.842Z,16.07
2019-04-25T23:22:52.633Z,16.03
2019-04-25T23:25:20.645Z,15.99
2019-04-25T23:27:51.124Z,15.93
2019-04-25T23:30:19.039Z,15.94
2019-04-25T23:32:44.817Z,15.89
2019-04-25T23:35:24.207Z,15.89
2019-04-25T23:37:38.520Z,15.83
2019-04-25T23:40:05.148Z,15.81
2019-04-25T23:42:32.036Z,15.74
2019-04-25T23:44:58.115Z,15.75
2019-04-25T23:47:23.902Z,15.73
2019-04-25T23:49:49.707Z,15.69
2019-04-25T23:52:15.699Z,15.73
2019-04-25T23:54:41.523Z,15.73
2019-04-25T23:57:08.249Z,15.78
2019-04-25T23:59:34.919Z,15.80
